createdAt,value
2024-01-24T00:00:57.131Z,51.28
2024-01-24T00:04:19.426Z,51.05
2024-01-24T00:07:41.792Z,54.83
2024-01-24T00:11:04.055Z,53.17
2024-01-24T00:14:27.323Z,58.95
2024-01-24T00:17:50.487Z,52.97
2024-01-24T00:21:12.886Z,54.92
2024-01-24T00:24:35.621Z,57.25
2024-01-24T00:27:57.746Z,57.17
2024-01-24T00:31:19.808Z,60.55
2024-01-24T00:34:42.092Z,52.20
2024-01-24T00:38:04.494Z,53.10
2024-01-24T00:41:26.540Z,46.25
2024-01-24T00:44:51.996Z,57.33
2024-01-24T00:48:14.321Z,51.53
2024-01-24T00:51:36.748Z,45.92
2024-01-24T00:54:58.813Z,46.47
2024-01-24T00:58:20.896Z,45.65
2024-01-24T01:01:43.117Z,44.92
2024-01-24T01:05:05.646Z,48.08
2024-01-24T01:08:27.973Z,39.05
2024-01-24T01:11:50.594Z,45.00
2024-01-24T01:15:12.767Z,41.30
2024-01-24T01:18:35.194Z,38.42
2024-01-24T01:21:57.368Z,43.45
2024-01-24T01:25:19.514Z,39.75
2024-01-24T01:28:41.533Z,40.42
2024-01-24T01:32:03.872Z,42.08
2024-01-24T01:35:26.196Z,39.30
2024-01-24T01:38:48.435Z,41.75
2024-01-24T01:42:10.564Z,40.42
2024-01-24T01:45:32.715Z,35.95
2024-01-24T01:48:57.606Z,39.00
2024-01-24T01:52:22.314Z,38.20
2024-01-24T01:55:44.573Z,33.17
2024-01-24T01:59:07.194Z,39.85
2024-01-24T02:02:29.813Z,40.47
2024-01-24T02:05:51.986Z,38.78
2024-01-24T02:09:15.026Z,43.10
2024-01-24T02:12:37.236Z,35.88
2024-01-24T02:16:00.109Z,33.10
2024-01-24T02:19:22.639Z,33.03
2024-01-24T02:22:44.808Z,32.17
2024-01-24T02:26:07.689Z,28.27
2024-01-24T02:29:29.806Z,28.38
2024-01-24T02:32:51.884Z,30.25
2024-01-24T02:36:16.288Z,25.35
2024-01-24T02:39:38.434Z,29.65
2024-01-24T02:43:00.640Z,26.70
2024-01-24T02:46:22.675Z,24.77
2024-01-24T02:49:45.007Z,23.13
2024-01-24T02:53:07.529Z,19.23
2024-01-24T02:56:29.896Z,19.10
2024-01-24T02:59:51.976Z,16.92
2024-01-24T03:03:14.443Z,21.17
2024-01-24T03:06:36.641Z,28.52
2024-01-24T03:09:59.141Z,27.52
2024-01-24T03:13:21.477Z,19.55
2024-01-24T03:16:44.041Z,22.90
2024-01-24T03:20:07.062Z,20.60
2024-01-24T03:23:29.605Z,25.42
2024-01-24T03:26:51.741Z,25.40
2024-01-24T03:30:14.672Z,28.23
2024-01-24T03:33:39.728Z,30.00
2024-01-24T03:37:02.184Z,30.13
2024-01-24T03:40:24.260Z,28.70
2024-01-24T03:43:46.436Z,22.88
2024-01-24T03:47:09.216Z,20.73
2024-01-24T03:50:31.281Z,21.08
2024-01-24T03:53:53.315Z,24.52
2024-01-24T03:57:15.405Z,28.55
2024-01-24T04:00:37.586Z,28.27
2024-01-24T04:03:59.720Z,23.00
2024-01-24T04:07:21.923Z,27.20
2024-01-24T04:10:44.184Z,32.53
2024-01-24T04:14:08.777Z,35.80
2024-01-24T04:17:31.819Z,26.30
2024-01-24T04:20:53.943Z,30.88
2024-01-24T04:24:17.018Z,30.52
2024-01-24T04:27:39.230Z,28.77
2024-01-24T04:31:01.440Z,31.52
2024-01-24T04:34:23.799Z,33.22
2024-01-24T04:37:45.909Z,29.50
2024-01-24T04:41:10.598Z,26.88
2024-01-24T04:44:33.846Z,28.00
2024-01-24T04:47:55.976Z,29.98
2024-01-24T04:51:18.256Z,29.52
2024-01-24T04:54:42.722Z,26.45
2024-01-24T04:58:05.787Z,22.92
2024-01-24T05:01:28.263Z,20.85
2024-01-24T05:04:50.897Z,21.05
2024-01-24T05:08:13.185Z,20.10
2024-01-24T05:11:35.324Z,24.38
2024-01-24T05:14:57.845Z,20.35
2024-01-24T05:18:20.155Z,22.23
2024-01-24T05:21:43.412Z,25.42
2024-01-24T05:25:06.378Z,18.75
2024-01-24T05:28:28.451Z,22.70
2024-01-24T05:31:50.761Z,12.68
2024-01-24T05:35:12.948Z,17.13
2024-01-24T05:38:35.050Z,18.05
2024-01-24T05:41:57.145Z,17.55
2024-01-24T05:45:19.225Z,19.88
2024-01-24T05:48:41.980Z,18.83
2024-01-24T05:52:06.058Z,20.15
2024-01-24T05:55:28.451Z,22.42
2024-01-24T05:58:51.051Z,20.17
2024-01-24T06:02:13.084Z,18.00
2024-01-24T06:05:35.194Z,25.60
2024-01-24T06:08:57.391Z,13.77
2024-01-24T06:12:19.554Z,16.58
2024-01-24T06:15:41.841Z,19.98
2024-01-24T06:19:04.098Z,18.23
2024-01-24T06:22:26.508Z,17.67
2024-01-24T06:25:48.632Z,18.27
2024-01-24T06:29:10.757Z,18.77
2024-01-24T06:32:32.844Z,20.30
2024-01-24T06:35:55.002Z,15.60
2024-01-24T06:39:17.348Z,13.05
2024-01-24T06:42:41.420Z,12.45
2024-01-24T06:46:06.819Z,12.13
2024-01-24T06:49:29.103Z,12.27
2024-01-24T06:52:52.338Z,13.98
2024-01-24T06:56:14.416Z,19.75
2024-01-24T06:59:36.649Z,15.30
2024-01-24T07:02:58.899Z,15.02
2024-01-24T07:06:21.369Z,13.40
2024-01-24T07:09:43.594Z,21.13
2024-01-24T07:13:06.464Z,17.42
2024-01-24T07:16:29.179Z,18.25
2024-01-24T07:19:52.607Z,20.02
2024-01-24T07:23:15.370Z,18.65
2024-01-24T07:26:37.470Z,37.97
2024-01-24T07:29:59.896Z,49.33
2024-01-24T07:33:25.185Z,38.08
2024-01-24T07:36:47.675Z,50.00
2024-01-24T07:40:12.177Z,53.80
2024-01-24T07:43:34.877Z,41.15
2024-01-24T07:46:57.051Z,25.23
2024-01-24T07:50:19.211Z,20.65
2024-01-24T07:53:43.497Z,20.30
2024-01-24T07:57:06.219Z,20.73
2024-01-24T08:00:28.376Z,18.08
2024-01-24T08:03:51.321Z,22.08
2024-01-24T08:07:14.158Z,13.05
2024-01-24T08:10:36.826Z,20.92
2024-01-24T08:13:59.250Z,29.40
2024-01-24T08:17:22.082Z,16.08
2024-01-24T08:20:44.497Z,12.55
2024-01-24T08:24:06.760Z,14.65
2024-01-24T08:27:29.420Z,12.57
2024-01-24T08:30:51.788Z,13.55
2024-01-24T08:34:14.878Z,14.18
2024-01-24T08:37:37.964Z,15.55
2024-01-24T08:41:00.605Z,12.20
2024-01-24T08:44:23.237Z,18.45
2024-01-24T08:47:46.167Z,21.00
2024-01-24T08:51:09.393Z,19.55
2024-01-24T08:54:32.212Z,22.65
2024-01-24T08:57:55.031Z,23.02
2024-01-24T09:01:18.684Z,27.30
2024-01-24T09:04:41.941Z,20.27
2024-01-24T09:08:05.865Z,23.92
2024-01-24T09:11:34.436Z,24.45
2024-01-24T09:15:00.573Z,22.60
2024-01-24T09:18:23.991Z,24.70
2024-01-24T09:21:48.996Z,24.17
2024-01-24T09:25:13.274Z,25.88
2024-01-24T09:28:36.887Z,22.63
2024-01-24T09:31:59.355Z,22.48
2024-01-24T09:35:22.136Z,17.40
2024-01-24T09:38:46.166Z,23.38
2024-01-24T09:42:20.091Z,22.70
2024-01-24T09:45:45.866Z,25.35
2024-01-24T09:49:09.182Z,22.75
2024-01-24T09:52:34.389Z,23.00
2024-01-24T09:55:57.094Z,20.15
2024-01-24T09:59:19.246Z,23.15
2024-01-24T10:02:45.544Z,21.13
2024-01-24T10:06:12.710Z,23.42
2024-01-24T10:09:35.075Z,24.92
2024-01-24T10:12:58.344Z,27.73
2024-01-24T10:16:21.490Z,26.42
2024-01-24T10:19:44.556Z,24.67
2024-01-24T10:23:07.087Z,26.73
2024-01-24T10:26:31.314Z,22.92
2024-01-24T10:29:53.698Z,24.42
2024-01-24T10:33:19.184Z,21.20
2024-01-24T10:36:45.518Z,32.00
2024-01-24T10:40:13.245Z,24.05
2024-01-24T10:43:36.361Z,30.70
2024-01-24T10:46:58.830Z,30.17
2024-01-24T10:50:22.248Z,29.60
2024-01-24T10:53:46.174Z,31.60
2024-01-24T10:57:09.737Z,35.63
2024-01-24T11:00:33.936Z,29.02
2024-01-24T11:03:58.805Z,31.90
2024-01-24T11:07:30.629Z,33.67
2024-01-24T11:10:56.760Z,32.05
2024-01-24T11:14:35.563Z,33.03
2024-01-24T11:18:20.700Z,33.85
2024-01-24T11:21:42.968Z,28.70
2024-01-24T11:25:05.916Z,32.65
2024-01-24T11:28:28.456Z,36.50
2024-01-24T11:31:51.294Z,30.83
2024-01-24T11:35:38.564Z,33.63
2024-01-24T11:39:01.504Z,29.60
2024-01-24T11:42:35.108Z,28.75
2024-01-24T11:46:00.153Z,26.00
2024-01-24T11:49:22.990Z,27.83
2024-01-24T11:52:46.888Z,31.98
2024-01-24T11:56:17.051Z,25.42
2024-01-24T12:03:02.569Z,26.60
2024-01-24T12:06:24.838Z,26.63
2024-01-24T12:09:47.485Z,26.20
2024-01-24T12:13:10.995Z,23.00
2024-01-24T12:16:33.536Z,28.05
2024-01-24T12:19:59.006Z,28.40
2024-01-24T12:23:22.129Z,32.75
2024-01-24T12:26:44.646Z,28.40
2024-01-24T12:30:11.081Z,28.10
2024-01-24T12:33:36.717Z,33.83
2024-01-24T12:37:02.120Z,42.60
2024-01-24T12:40:24.914Z,51.70
2024-01-24T12:43:47.456Z,45.53
2024-01-24T12:47:10.187Z,41.97
2024-01-24T12:50:33.040Z,43.20
2024-01-24T12:53:55.270Z,49.53
2024-01-24T12:57:18.147Z,46.33
2024-01-24T13:00:40.533Z,46.28
2024-01-24T13:04:03.013Z,46.38
2024-01-24T13:07:25.941Z,47.20
2024-01-24T13:10:50.022Z,47.88
2024-01-24T13:14:14.055Z,47.40
2024-01-24T13:17:37.062Z,50.83
2024-01-24T13:20:59.547Z,57.00
2024-01-24T13:24:22.867Z,51.50
2024-01-24T13:27:46.428Z,50.15
2024-01-24T13:31:09.405Z,50.97
2024-01-24T13:34:32.484Z,45.22
2024-01-24T13:37:54.696Z,47.63
2024-01-24T13:41:16.867Z,43.60
2024-01-24T13:44:39.190Z,43.85
2024-01-24T13:48:03.801Z,48.38
2024-01-24T13:51:31.166Z,45.60
2024-01-24T13:55:05.138Z,42.13
2024-01-24T13:58:27.635Z,46.22
2024-01-24T14:01:54.145Z,45.30
2024-01-24T14:05:22.196Z,45.17
2024-01-24T14:08:44.428Z,45.40
2024-01-24T14:12:07.482Z,43.83
2024-01-24T14:15:34.710Z,50.17
2024-01-24T14:19:01.284Z,51.58
2024-01-24T14:22:23.722Z,60.25
2024-01-24T14:25:46.300Z,65.95
2024-01-24T14:29:08.408Z,56.00
2024-01-24T14:32:30.516Z,58.72
2024-01-24T14:35:53.012Z,66.20
2024-01-24T14:39:15.396Z,62.97
2024-01-24T14:42:37.857Z,62.90
2024-01-24T14:46:00.107Z,65.40
2024-01-24T14:49:22.360Z,71.93
2024-01-24T14:52:44.800Z,67.47
2024-01-24T14:56:07.671Z,66.22
2024-01-24T14:59:30.445Z,66.72
2024-01-24T15:02:52.738Z,71.38
2024-01-24T15:06:14.901Z,70.75
2024-01-24T15:09:37.216Z,75.05
2024-01-24T15:12:59.479Z,71.25
2024-01-24T15:16:21.646Z,65.80
2024-01-24T15:19:47.747Z,72.75
2024-01-24T15:23:11.392Z,69.18
2024-01-24T15:26:34.052Z,67.38
2024-01-24T15:29:59.492Z,82.97
2024-01-24T15:33:22.000Z,75.75
2024-01-24T15:36:44.726Z,72.45
2024-01-24T15:40:11.097Z,80.35
2024-01-24T15:43:39.125Z,74.93
2024-01-24T15:47:02.406Z,73.70
2024-01-24T15:50:24.581Z,70.68
2024-01-24T15:53:46.666Z,70.85
2024-01-24T15:57:08.856Z,80.90
2024-01-24T16:00:31.168Z,86.00
2024-01-24T16:03:56.172Z,89.60
2024-01-24T16:07:19.834Z,80.13
2024-01-24T16:10:43.791Z,80.65
2024-01-24T16:14:06.374Z,81.53
2024-01-24T16:17:29.404Z,77.85
2024-01-24T16:20:51.520Z,78.93
2024-01-24T16:24:13.846Z,84.60
2024-01-24T16:27:38.545Z,81.55
2024-01-24T16:31:00.748Z,87.13
2024-01-24T16:34:23.488Z,82.78
2024-01-24T16:37:45.905Z,90.82
2024-01-24T16:41:09.759Z,88.03
2024-01-24T16:44:34.129Z,85.35
2024-01-24T16:47:56.824Z,86.45
2024-01-24T16:51:19.059Z,84.38
2024-01-24T16:54:41.314Z,87.10
2024-01-24T16:58:03.635Z,87.10
2024-01-24T17:01:25.934Z,93.63
2024-01-24T17:04:48.413Z,100.80
2024-01-24T17:08:10.683Z,101.30
2024-01-24T17:11:32.946Z,106.38
2024-01-24T17:14:55.387Z,109.93
2024-01-24T17:18:17.920Z,101.80
2024-01-24T17:21:40.248Z,105.00
2024-01-24T17:25:04.376Z,104.60
2024-01-24T17:28:26.592Z,112.18
2024-01-24T17:31:49.145Z,107.28
2024-01-24T17:35:11.827Z,111.78
2024-01-24T17:38:34.379Z,106.68
2024-01-24T17:41:56.781Z,110.18
2024-01-24T17:45:19.081Z,97.13
2024-01-24T17:48:41.838Z,113.47
2024-01-24T17:52:04.441Z,109.72
2024-01-24T17:55:29.374Z,121.40
2024-01-24T17:58:51.715Z,123.47
2024-01-24T18:02:14.727Z,134.73
2024-01-24T18:05:38.214Z,108.75
2024-01-24T18:09:00.828Z,102.78
2024-01-24T18:12:23.608Z,129.65
2024-01-24T18:15:45.748Z,103.97
2024-01-24T18:19:07.940Z,111.85
2024-01-24T18:22:30.150Z,105.85
2024-01-24T18:25:52.554Z,113.10
2024-01-24T18:29:16.666Z,106.88
2024-01-24T18:32:39.241Z,115.43
2024-01-24T18:36:01.441Z,106.20
2024-01-24T18:39:23.570Z,106.80
2024-01-24T18:42:47.675Z,105.68
2024-01-24T18:46:10.122Z,114.95
2024-01-24T18:49:32.654Z,106.35
2024-01-24T18:52:54.944Z,117.10
2024-01-24T18:56:17.245Z,113.78
2024-01-24T18:59:39.832Z,107.75
2024-01-24T19:03:02.192Z,115.93
2024-01-24T19:06:24.888Z,118.20
2024-01-24T19:09:47.748Z,120.95
2024-01-24T19:13:10.318Z,116.57
2024-01-24T19:16:32.730Z,122.20
2024-01-24T19:19:55.492Z,118.68
2024-01-24T19:23:17.789Z,134.55
2024-01-24T19:26:44.295Z,123.43
2024-01-24T19:30:07.482Z,128.70
2024-01-24T19:33:29.722Z,119.22
2024-01-24T19:36:52.473Z,105.30
2024-01-24T19:40:14.799Z,110.97
2024-01-24T19:43:38.334Z,113.97
2024-01-24T19:47:00.621Z,110.25
2024-01-24T19:50:24.076Z,106.60
2024-01-24T19:53:47.025Z,106.93
2024-01-24T19:57:09.319Z,106.78
2024-01-24T20:00:31.574Z,101.90
2024-01-24T20:03:55.096Z,108.13
2024-01-24T20:07:17.713Z,101.45
2024-01-24T20:10:39.963Z,100.72
2024-01-24T20:14:02.170Z,107.00
2024-01-24T20:17:25.025Z,107.93
2024-01-24T20:20:47.430Z,115.32
2024-01-24T20:24:12.511Z,114.13
2024-01-24T20:27:34.713Z,114.18
2024-01-24T20:30:57.049Z,114.43
2024-01-24T20:34:19.625Z,111.25
2024-01-24T20:37:42.130Z,119.65
2024-01-24T20:41:08.408Z,124.10
2024-01-24T20:44:30.544Z,109.25
2024-01-24T20:47:57.674Z,118.78
2024-01-24T20:51:23.305Z,118.15
2024-01-24T20:54:45.564Z,104.85
2024-01-24T20:58:09.375Z,109.35
2024-01-24T21:01:32.123Z,111.85
2024-01-24T21:04:54.669Z,109.80
2024-01-24T21:08:17.281Z,102.15
2024-01-24T21:11:39.480Z,107.10
2024-01-24T21:15:02.004Z,97.72
2024-01-24T21:18:24.319Z,111.07
2024-01-24T21:21:46.894Z,102.40
2024-01-24T21:25:09.769Z,106.32
2024-01-24T21:28:32.335Z,107.13
2024-01-24T21:31:54.583Z,119.00
2024-01-24T21:35:17.018Z,119.30
2024-01-24T21:38:39.135Z,121.10
2024-01-24T21:42:01.262Z,106.22
2024-01-24T21:45:23.622Z,109.63
2024-01-24T21:48:47.180Z,112.88
2024-01-24T21:52:10.167Z,102.82
2024-01-24T21:55:32.296Z,99.65
2024-01-24T21:58:56.384Z,99.45
2024-01-24T22:02:18.836Z,105.95
2024-01-24T22:05:41.031Z,99.93
2024-01-24T22:09:03.205Z,106.82
2024-01-24T22:12:25.380Z,106.95
2024-01-24T22:15:47.801Z,111.18
2024-01-24T22:19:10.093Z,111.97
2024-01-24T22:22:32.311Z,110.32
2024-01-24T22:25:54.844Z,105.60
2024-01-24T22:29:17.686Z,107.03
2024-01-24T22:32:39.924Z,101.38
2024-01-24T22:36:02.530Z,109.05
2024-01-24T22:39:24.915Z,104.43
2024-01-24T22:42:47.020Z,107.88
2024-01-24T22:46:09.265Z,109.40
2024-01-24T22:49:31.474Z,116.28
2024-01-24T22:52:53.731Z,102.22
2024-01-24T22:56:16.034Z,104.78
2024-01-24T22:59:38.905Z,106.45
2024-01-24T23:03:01.802Z,115.53
2024-01-24T23:06:23.974Z,102.05
2024-01-24T23:09:46.229Z,110.45
2024-01-24T23:13:08.402Z,102.03
2024-01-24T23:16:30.470Z,106.95
2024-01-24T23:19:54.901Z,108.95
2024-01-24T23:23:17.150Z,108.68
2024-01-24T23:26:40.336Z,112.18
2024-01-24T23:30:03.334Z,105.25
2024-01-24T23:33:26.076Z,112.60
2024-01-24T23:36:48.800Z,108.05
2024-01-24T23:40:11.504Z,120.32
2024-01-24T23:43:33.725Z,116.75
2024-01-24T23:46:56.076Z,110.30
2024-01-24T23:50:18.421Z,118.45
2024-01-24T23:53:40.617Z,94.95
2024-01-24T23:57:02.799Z,107.65
